sensor_id;sensor_type;location;lat;lon;timestamp;pressure;altitude;pressure_sealevel;temperature;humidity
63204;BME280;49297;43.210;27.914;2023-06-01T00:00:03;101218.09;;;18.24;69.38
63204;BME280;49297;43.210;27.914;2023-06-01T00:02:33;101216.41;;;18.23;68.96
63204;BME280;49297;43.210;27.914;2023-06-01T00:04:58;101218.78;;;18.18;68.65
63204;BME280;49297;43.210;27.914;2023-06-01T00:07:24;101219.31;;;18.13;68.50
63204;BME280;49297;43.210;27.914;2023-06-01T00:09:50;101208.13;;;18.10;68.43
63204;BME280;49297;43.210;27.914;2023-06-01T00:12:15;101214.13;;;18.12;68.14
63204;BME280;49297;43.210;27.914;2023-06-01T00:14:41;101209.13;;;18.08;67.59
63204;BME280;49297;43.210;27.914;2023-06-01T00:17:07;101208.63;;;18.05;67.52
63204;BME280;49297;43.210;27.914;2023-06-01T00:19:35;101204.47;;;18.02;67.00
63204;BME280;49297;43.210;27.914;2023-06-01T00:22:00;101206.00;;;17.97;67.10
63204;BME280;49297;43.210;27.914;2023-06-01T00:24:26;101212.53;;;17.94;66.88
63204;BME280;49297;43.210;27.914;2023-06-01T00:26:52;101201.34;;;17.91;67.05
63204;BME280;49297;43.210;27.914;2023-06-01T00:29:18;101207.53;;;17.91;67.38
63204;BME280;49297;43.210;27.914;2023-06-01T00:31:43;101197.66;;;17.92;67.60
63204;BME280;49297;43.210;27.914;2023-06-01T00:34:10;101186.94;;;17.92;67.72
63204;BME280;49297;43.210;27.914;2023-06-01T00:36:36;101201.16;;;17.92;67.78
63204;BME280;49297;43.210;27.914;2023-06-01T00:39:02;101197.28;;;17.95;67.56
63204;BME280;49297;43.210;27.914;2023-06-01T00:41:30;101198.66;;;17.91;67.28
63204;BME280;49297;43.210;27.914;2023-06-01T00:43:56;101190.78;;;17.89;67.04
63204;BME280;49297;43.210;27.914;2023-06-01T00:46:22;101193.13;;;17.84;67.19
63204;BME280;49297;43.210;27.914;2023-06-01T00:48:48;101199.69;;;17.81;67.25
63204;BME280;49297;43.210;27.914;2023-06-01T00:51:14;101198.84;;;17.81;67.42
63204;BME280;49297;43.210;27.914;2023-06-01T00:53:41;101197.50;;;17.77;67.51
63204;BME280;49297;43.210;27.914;2023-06-01T00:56:08;101193.50;;;17.73;67.68
63204;BME280;49297;43.210;27.914;2023-06-01T00:58:38;101199.56;;;17.66;67.37
63204;BME280;49297;43.210;27.914;2023-06-01T01:01:04;101200.91;;;17.62;67.69
63204;BME280;49297;43.210;27.914;2023-06-01T01:03:30;101204.25;;;17.64;67.59
63204;BME280;49297;43.210;27.914;2023-06-01T01:09:06;101199.59;;;17.58;67.67
63204;BME280;49297;43.210;27.914;2023-06-01T01:11:37;101200.94;;;17.54;68.04
63204;BME280;49297;43.210;27.914;2023-06-01T01:14:38;101196.59;;;17.53;67.95
63204;BME280;49297;43.210;27.914;2023-06-01T01:17:27;101203.13;;;17.50;68.06
63204;BME280;49297;43.210;27.914;2023-06-01T01:20:13;101200.25;;;17.52;68.13
63204;BME280;49297;43.210;27.914;2023-06-01T01:30:41;101200.13;;;17.45;68.26
63204;BME280;49297;43.210;27.914;2023-06-01T01:33:09;101204.81;;;17.43;68.23
63204;BME280;49297;43.210;27.914;2023-06-01T01:35:36;101205.81;;;17.42;68.21
63204;BME280;49297;43.210;27.914;2023-06-01T01:38:04;101192.59;;;17.41;68.11
63204;BME280;49297;43.210;27.914;2023-06-01T01:40:29;101196.97;;;17.34;68.42
63204;BME280;49297;43.210;27.914;2023-06-01T01:42:55;101203.00;;;17.27;68.67
63204;BME280;49297;43.210;27.914;2023-06-01T01:45:23;101209.53;;;17.25;68.79
63204;BME280;49297;43.210;27.914;2023-06-01T01:47:58;101198.97;;;17.23;68.59
63204;BME280;49297;43.210;27.914;2023-06-01T01:50:29;101210.38;;;17.17;68.93
63204;BME280;49297;43.210;27.914;2023-06-01T01:52:59;101201.69;;;17.15;69.21
63204;BME280;49297;43.210;27.914;2023-06-01T01:55:25;101206.19;;;17.15;69.26
63204;BME280;49297;43.210;27.914;2023-06-01T01:57:51;101213.22;;;17.16;69.05
63204;BME280;49297;43.210;27.914;2023-06-01T02:00:19;101212.56;;;17.13;69.12
63204;BME280;49297;43.210;27.914;2023-06-01T02:02:45;101210.03;;;17.12;68.92
63204;BME280;49297;43.210;27.914;2023-06-01T02:05:11;101204.03;;;17.10;68.97
63204;BME280;49297;43.210;27.914;2023-06-01T02:07:36;101212.56;;;17.13;68.45
63204;BME280;49297;43.210;27.914;2023-06-01T02:10:02;101202.69;;;17.14;68.67
63204;BME280;49297;43.210;27.914;2023-06-01T02:12:28;101211.38;;;17.16;68.49
63204;BME280;49297;43.210;27.914;2023-06-01T02:14:53;101210.72;;;17.14;68.42
63204;BME280;49297;43.210;27.914;2023-06-01T02:17:19;101214.06;;;17.08;68.59
63204;BME280;49297;43.210;27.914;2023-06-01T02:19:46;101211.56;;;17.06;68.52
63204;BME280;49297;43.210;27.914;2023-06-01T02:22:12;101211.06;;;17.03;68.67
63204;BME280;49297;43.210;27.914;2023-06-01T02:24:39;101221.09;;;17.01;68.27
63204;BME280;49297;43.210;27.914;2023-06-01T02:27:04;101217.06;;;16.97;68.52
63204;BME280;49297;43.210;27.914;2023-06-01T02:29:31;101220.75;;;16.96;68.29
63204;BME280;49297;43.210;27.914;2023-06-01T02:31:56;101220.09;;;16.93;68.70
63204;BME280;49297;43.210;27.914;2023-06-01T02:34:22;101215.91;;;16.91;68.38
63204;BME280;49297;43.210;27.914;2023-06-01T02:36:47;101213.75;;;16.86;68.57
63204;BME280;49297;43.210;27.914;2023-06-01T02:39:16;101217.41;;;16.85;68.60
63204;BME280;49297;43.210;27.914;2023-06-01T02:41:42;101211.53;;;16.82;68.55
63204;BME280;49297;43.210;27.914;2023-06-01T02:44:08;101212.00;;;16.77;68.65
63204;BME280;49297;43.210;27.914;2023-06-01T02:46:33;101208.34;;;16.78;68.71
63204;BME280;49297;43.210;27.914;2023-06-01T02:48:59;101225.72;;;16.74;68.96
63204;BME280;49297;43.210;27.914;2023-06-01T02:51:25;101210.34;;;16.76;68.73
63204;BME280;49297;43.210;27.914;2023-06-01T02:53:51;101223.88;;;16.74;68.82
63204;BME280;49297;43.210;27.914;2023-06-01T02:56:16;101219.19;;;16.68;68.58
63204;BME280;49297;43.210;27.914;2023-06-01T02:58:42;101224.03;;;16.65;68.94
63204;BME280;49297;43.210;27.914;2023-06-01T03:01:08;101226.69;;;16.65;68.97
63204;BME280;49297;43.210;27.914;2023-06-01T03:03:38;101230.72;;;16.61;68.87
63204;BME280;49297;43.210;27.914;2023-06-01T03:06:07;101226.88;;;16.63;68.81
63204;BME280;49297;43.210;27.914;2023-06-01T03:08:34;101225.56;;;16.67;68.93
63204;BME280;49297;43.210;27.914;2023-06-01T03:11:00;101226.72;;;16.73;68.77
63204;BME280;49297;43.210;27.914;2023-06-01T03:13:26;101227.38;;;16.75;68.81
63204;BME280;49297;43.210;27.914;2023-06-01T03:15:52;101228.75;;;16.79;68.79
63204;BME280;49297;43.210;27.914;2023-06-01T03:18:17;101239.94;;;16.83;68.76
63204;BME280;49297;43.210;27.914;2023-06-01T03:20:43;101223.25;;;16.89;68.27
63204;BME280;49297;43.210;27.914;2023-06-01T03:23:09;101235.94;;;16.95;68.58
63204;BME280;49297;43.210;27.914;2023-06-01T03:25:35;101228.78;;;16.96;68.16
63204;BME280;49297;43.210;27.914;2023-06-01T03:28:00;101236.81;;;16.96;68.14
63204;BME280;49297;43.210;27.914;2023-06-01T03:30:26;101234.94;;;16.96;68.11
63204;BME280;49297;43.210;27.914;2023-06-01T03:32:52;101247.34;;;16.97;67.91
63204;BME280;49297;43.210;27.914;2023-06-01T03:35:18;101239.97;;;16.91;68.59
63204;BME280;49297;43.210;27.914;2023-06-01T03:37:45;101235.78;;;16.88;68.20
63204;BME280;49297;43.210;27.914;2023-06-01T03:40:12;101240.94;;;16.82;68.78
63204;BME280;49297;43.210;27.914;2023-06-01T03:42:42;101240.94;;;16.82;68.77
63204;BME280;49297;43.210;27.914;2023-06-01T03:45:10;101236.28;;;16.84;69.05
63204;BME280;49297;43.210;27.914;2023-06-01T03:47:36;101242.81;;;16.89;68.46
63204;BME280;49297;43.210;27.914;2023-06-01T03:50:03;101242.13;;;16.87;68.57
63204;BME280;49297;43.210;27.914;2023-06-01T03:52:31;101242.31;;;16.94;68.37
63204;BME280;49297;43.210;27.914;2023-06-01T03:54:59;101235.63;;;16.98;67.88
63204;BME280;49297;43.210;27.914;2023-06-01T03:57:27;101241.47;;;17.02;67.84
63204;BME280;49297;43.210;27.914;2023-06-01T03:59:53;101232.78;;;17.08;67.67
63204;BME280;49297;43.210;27.914;2023-06-01T04:02:19;101241.47;;;17.18;67.21
63204;BME280;49297;43.210;27.914;2023-06-01T04:04:45;101245.50;;;17.22;67.00
63204;BME280;49297;43.210;27.914;2023-06-01T04:07:13;101239.44;;;17.28;66.82
63204;BME280;49297;43.210;27.914;2023-06-01T04:09:44;101248.97;;;17.39;66.12
63204;BME280;49297;43.210;27.914;2023-06-01T04:12:12;101249.97;;;17.46;66.13
63204;BME280;49297;43.210;27.914;2023-06-01T04:14:40;101252.63;;;17.55;65.42
63204;BME280;49297;43.210;27.914;2023-06-01T04:17:05;101246.59;;;17.61;65.30
63204;BME280;49297;43.210;27.914;2023-06-01T04:19:32;101244.56;;;17.63;65.31
63204;BME280;49297;43.210;27.914;2023-06-01T04:21:59;101253.63;;;17.70;64.80
63204;BME280;49297;43.210;27.914;2023-06-01T04:24:24;101249.41;;;17.76;64.45
63204;BME280;49297;43.210;27.914;2023-06-01T04:26:50;101257.28;;;17.77;64.38
63204;BME280;49297;43.210;27.914;2023-06-01T04:29:16;101252.91;;;17.84;64.35
63204;BME280;49297;43.210;27.914;2023-06-01T04:31:45;101252.56;;;17.96;63.71
63204;BME280;49297;43.210;27.914;2023-06-01T04:34:11;101250.84;;;18.03;63.27
63204;BME280;49297;43.210;27.914;2023-06-01T04:36:37;101257.00;;;18.12;63.38
63204;BME280;49297;43.210;27.914;2023-06-01T04:39:08;101249.94;;;18.19;62.45
63204;BME280;49297;43.210;27.914;2023-06-01T04:41:36;101246.56;;;18.25;63.00
63204;BME280;49297;43.210;27.914;2023-06-01T04:44:03;101245.69;;;18.33;62.65
63204;BME280;49297;43.210;27.914;2023-06-01T04:46:32;101242.13;;;18.40;62.90
63204;BME280;49297;43.210;27.914;2023-06-01T04:48:58;101247.94;;;18.52;62.56
63204;BME280;49297;43.210;27.914;2023-06-01T04:51:27;101246.03;;;18.61;62.38
63204;BME280;49297;43.210;27.914;2023-06-01T04:53:54;101243.84;;;18.64;62.27
63204;BME280;49297;43.210;27.914;2023-06-01T04:56:23;101254.66;;;18.71;62.42
63204;BME280;49297;43.210;27.914;2023-06-01T04:58:53;101249.94;;;18.81;61.92
63204;BME280;49297;43.210;27.914;2023-06-01T05:01:23;101250.22;;;18.87;61.67
63204;BME280;49297;43.210;27.914;2023-06-01T05:03:52;101252.88;;;18.95;61.26
63204;BME280;49297;43.210;27.914;2023-06-01T05:06:19;101263.34;;;19.05;61.30
63204;BME280;49297;43.210;27.914;2023-06-01T05:08:46;101255.88;;;19.15;61.23
63204;BME280;49297;43.210;27.914;2023-06-01T05:11:11;101260.97;;;19.25;60.76
63204;BME280;49297;43.210;27.914;2023-06-01T05:13:39;101258.59;;;19.30;60.55
63204;BME280;49297;43.210;27.914;2023-06-01T05:16:07;101253.81;;;19.40;60.79
63204;BME280;49297;43.210;27.914;2023-06-01T05:18:34;101262.25;;;19.52;60.80
63204;BME280;49297;43.210;27.914;2023-06-01T05:21:00;101261.50;;;19.58;60.46
63204;BME280;49297;43.210;27.914;2023-06-01T05:23:26;101263.66;;;19.63;60.83
63204;BME280;49297;43.210;27.914;2023-06-01T05:25:58;101262.25;;;19.67;61.50
63204;BME280;49297;43.210;27.914;2023-06-01T05:28:31;101251.06;;;19.78;61.51
63204;BME280;49297;43.210;27.914;2023-06-01T05:30:57;101260.63;;;19.81;61.28
63204;BME280;49297;43.210;27.914;2023-06-01T05:33:23;101254.41;;;19.80;61.55
63204;BME280;49297;43.210;27.914;2023-06-01T05:35:49;101260.06;;;19.85;61.54
63204;BME280;49297;43.210;27.914;2023-06-01T05:38:16;101259.97;;;19.93;61.19
63204;BME280;49297;43.210;27.914;2023-06-01T05:40:42;101252.84;;;20.01;61.23
63204;BME280;49297;43.210;27.914;2023-06-01T05:43:07;101262.28;;;20.11;60.93
63204;BME280;49297;43.210;27.914;2023-06-01T05:45:33;101254.13;;;20.20;60.91
63204;BME280;49297;43.210;27.914;2023-06-01T05:48:00;101259.00;;;20.31;60.27
63204;BME280;49297;43.210;27.914;2023-06-01T05:50:26;101260.47;;;20.33;59.89
63204;BME280;49297;43.210;27.914;2023-06-01T05:52:52;101264.06;;;20.41;58.69
63204;BME280;49297;43.210;27.914;2023-06-01T05:55:18;101260.44;;;20.48;58.51
63204;BME280;49297;43.210;27.914;2023-06-01T05:57:43;101258.66;;;20.56;58.37
63204;BME280;49297;43.210;27.914;2023-06-01T06:00:11;101269.13;;;20.65;58.32
63204;BME280;49297;43.210;27.914;2023-06-01T06:02:42;101271.72;;;20.73;58.25
63204;BME280;49297;43.210;27.914;2023-06-01T06:05:08;101269.53;;;20.84;58.03
63204;BME280;49297;43.210;27.914;2023-06-01T06:07:34;101264.00;;;20.92;56.84
63204;BME280;49297;43.210;27.914;2023-06-01T06:12:29;101267.84;;;21.04;56.24
63204;BME280;49297;43.210;27.914;2023-06-01T06:14:55;101271.06;;;21.15;55.97
63204;BME280;49297;43.210;27.914;2023-06-01T06:17:21;101270.91;;;21.23;55.37
63204;BME280;49297;43.210;27.914;2023-06-01T06:19:48;101278.66;;;21.33;55.17
63204;BME280;49297;43.210;27.914;2023-06-01T06:22:14;101263.78;;;21.37;53.76
63204;BME280;49297;43.210;27.914;2023-06-01T06:24:41;101272.91;;;21.42;54.43
63204;BME280;49297;43.210;27.914;2023-06-01T06:27:11;101270.94;;;21.51;54.71
63204;BME280;49297;43.210;27.914;2023-06-01T06:29:37;101272.06;;;21.63;55.22
63204;BME280;49297;43.210;27.914;2023-06-01T06:32:06;101273.00;;;21.77;55.13
63204;BME280;49297;43.210;27.914;2023-06-01T06:34:32;101279.25;;;21.84;54.28
63204;BME280;49297;43.210;27.914;2023-06-01T06:37:04;101279.09;;;21.93;53.16
63204;BME280;49297;43.210;27.914;2023-06-01T06:39:32;101281.00;;;21.99;53.47
63204;BME280;49297;43.210;27.914;2023-06-01T06:42:00;101283.34;;;22.09;53.30
63204;BME280;49297;43.210;27.914;2023-06-01T06:44:28;101282.56;;;22.21;53.23
63204;BME280;49297;43.210;27.914;2023-06-01T06:46:57;101281.19;;;22.32;53.22
63204;BME280;49297;43.210;27.914;2023-06-01T06:49:23;101290.31;;;22.38;53.19
63204;BME280;49297;43.210;27.914;2023-06-01T06:51:51;101277.50;;;22.47;52.29
63204;BME280;49297;43.210;27.914;2023-06-01T06:54:17;101279.19;;;22.61;51.59
63204;BME280;49297;43.210;27.914;2023-06-01T06:56:43;101279.84;;;22.70;49.42
63204;BME280;49297;43.210;27.914;2023-06-01T06:59:11;101274.47;;;22.76;46.96
63204;BME280;49297;43.210;27.914;2023-06-01T07:01:37;101278.19;;;22.89;46.72
63204;BME280;49297;43.210;27.914;2023-06-01T07:04:06;101276.34;;;23.03;45.72
63204;BME280;49297;43.210;27.914;2023-06-01T07:06:32;101271.19;;;23.08;44.39
63204;BME280;49297;43.210;27.914;2023-06-01T07:08:59;101273.28;;;23.12;44.97
63204;BME280;49297;43.210;27.914;2023-06-01T07:11:26;101277.00;;;23.18;44.86
63204;BME280;49297;43.210;27.914;2023-06-01T07:13:55;101274.94;;;23.20;45.26
63204;BME280;49297;43.210;27.914;2023-06-01T07:16:23;101274.13;;;23.26;45.81
63204;BME280;49297;43.210;27.914;2023-06-01T07:18:51;101271.38;;;23.40;46.40
63204;BME280;49297;43.210;27.914;2023-06-01T07:21:19;101273.84;;;23.54;46.26
63204;BME280;49297;43.210;27.914;2023-06-01T07:23:45;101276.13;;;23.71;46.57
63204;BME280;49297;43.210;27.914;2023-06-01T07:26:11;101271.78;;;23.83;45.73
63204;BME280;49297;43.210;27.914;2023-06-01T07:28:37;101263.22;;;23.93;45.74
63204;BME280;49297;43.210;27.914;2023-06-01T07:31:03;101274.84;;;24.00;44.51
63204;BME280;49297;43.210;27.914;2023-06-01T07:33:29;101270.84;;;24.09;44.67
63204;BME280;49297;43.210;27.914;2023-06-01T07:35:55;101268.72;;;24.18;44.30
63204;BME280;49297;43.210;27.914;2023-06-01T07:38:23;101268.28;;;24.28;44.21
63204;BME280;49297;43.210;27.914;2023-06-01T07:40:51;101278.63;;;24.38;43.72
63204;BME280;49297;43.210;27.914;2023-06-01T07:43:29;101274.84;;;24.45;43.79
63204;BME280;49297;43.210;27.914;2023-06-01T07:45:55;101271.72;;;24.55;43.53
63204;BME280;49297;43.210;27.914;2023-06-01T07:48:21;101264.38;;;24.62;43.29
63204;BME280;49297;43.210;27.914;2023-06-01T07:50:47;101269.50;;;24.70;42.80
63204;BME280;49297;43.210;27.914;2023-06-01T07:53:13;101265.53;;;24.80;41.88
63204;BME280;49297;43.210;27.914;2023-06-01T07:55:40;101254.47;;;24.81;41.76
63204;BME280;49297;43.210;27.914;2023-06-01T07:58:08;101260.41;;;24.90;42.88
63204;BME280;49297;43.210;27.914;2023-06-01T08:00:34;101257.41;;;25.05;43.44
63204;BME280;49297;43.210;27.914;2023-06-01T08:03:00;101262.69;;;25.18;42.55
63204;BME280;49297;43.210;27.914;2023-06-01T08:05:33;101264.50;;;25.31;41.21
63204;BME280;49297;43.210;27.914;2023-06-01T08:07:59;101256.31;;;25.38;41.24
63204;BME280;49297;43.210;27.914;2023-06-01T08:10:26;101250.78;;;25.51;40.94
63204;BME280;49297;43.210;27.914;2023-06-01T08:12:51;101251.69;;;25.63;41.06
63204;BME280;49297;43.210;27.914;2023-06-01T08:15:23;101250.94;;;25.75;39.44
63204;BME280;49297;43.210;27.914;2023-06-01T08:17:52;101250.13;;;25.74;38.81
63204;BME280;49297;43.210;27.914;2023-06-01T08:20:18;101250.34;;;25.73;38.90
63204;BME280;49297;43.210;27.914;2023-06-01T08:22:50;101251.31;;;25.78;38.95
63204;BME280;49297;43.210;27.914;2023-06-01T08:25:16;101249.28;;;25.92;38.81
63204;BME280;49297;43.210;27.914;2023-06-01T08:27:44;101247.00;;;26.08;38.66
63204;BME280;49297;43.210;27.914;2023-06-01T08:30:15;101245.53;;;26.12;38.73
63204;BME280;49297;43.210;27.914;2023-06-01T08:32:42;101248.47;;;26.10;38.00
63204;BME280;49297;43.210;27.914;2023-06-01T08:35:08;101252.69;;;26.06;42.73
63204;BME280;49297;43.210;27.914;2023-06-01T08:37:35;101244.84;;;25.98;45.22
63204;BME280;49297;43.210;27.914;2023-06-01T08:40:03;101249.13;;;25.87;46.22
63204;BME280;49297;43.210;27.914;2023-06-01T08:45:10;101237.38;;;25.56;46.47
63204;BME280;49297;43.210;27.914;2023-06-01T08:47:36;101242.09;;;25.42;47.42
63204;BME280;49297;43.210;27.914;2023-06-01T08:50:05;101235.78;;;25.23;48.07
63204;BME280;49297;43.210;27.914;2023-06-01T08:52:31;101239.88;;;25.07;48.64
63204;BME280;49297;43.210;27.914;2023-06-01T08:55:00;101243.75;;;24.93;48.51
63204;BME280;49297;43.210;27.914;2023-06-01T08:57:27;101239.69;;;24.77;47.71
63204;BME280;49297;43.210;27.914;2023-06-01T08:59:55;101233.16;;;24.60;47.81
63204;BME280;49297;43.210;27.914;2023-06-01T09:02:21;101239.84;;;24.50;48.09
63204;BME280;49297;43.210;27.914;2023-06-01T09:04:47;101234.88;;;24.47;46.80
63204;BME280;49297;43.210;27.914;2023-06-01T09:07:15;101240.72;;;24.44;46.49
63204;BME280;49297;43.210;27.914;2023-06-01T09:09:41;101229.94;;;24.38;45.87
63204;BME280;49297;43.210;27.914;2023-06-01T09:14:43;101229.53;;;24.34;44.66
63204;BME280;49297;43.210;27.914;2023-06-01T09:17:30;101232.25;;;24.34;44.92
63204;BME280;49297;43.210;27.914;2023-06-01T09:20:02;101228.09;;;24.31;45.00
63204;BME280;49297;43.210;27.914;2023-06-01T09:22:43;101238.94;;;24.31;44.96
63204;BME280;49297;43.210;27.914;2023-06-01T09:25:16;101227.47;;;24.29;44.53
63204;BME280;49297;43.210;27.914;2023-06-01T09:30:08;101229.78;;;24.26;47.62
63204;BME280;49297;43.210;27.914;2023-06-01T09:32:34;101231.88;;;24.24;48.64
63204;BME280;49297;43.210;27.914;2023-06-01T09:35:02;101225.03;;;24.21;49.04
63204;BME280;49297;43.210;27.914;2023-06-01T09:37:36;101229.81;;;24.19;51.06
63204;BME280;49297;43.210;27.914;2023-06-01T09:40:25;101224.59;;;24.24;51.22
63204;BME280;49297;43.210;27.914;2023-06-01T09:42:52;101222.91;;;24.30;48.61
63204;BME280;49297;43.210;27.914;2023-06-01T09:45:22;101231.16;;;24.42;46.83
63204;BME280;49297;43.210;27.914;2023-06-01T09:47:51;101228.78;;;24.52;47.20
63204;BME280;49297;43.210;27.914;2023-06-01T09:50:33;101224.81;;;24.61;46.61
63204;BME280;49297;43.210;27.914;2023-06-01T09:52:59;101225.16;;;24.72;46.45
63204;BME280;49297;43.210;27.914;2023-06-01T09:55:25;101237.00;;;24.77;46.26
63204;BME280;49297;43.210;27.914;2023-06-01T09:57:51;101228.00;;;24.83;45.40
63204;BME280;49297;43.210;27.914;2023-06-01T10:00:25;101225.84;;;24.92;44.83
63204;BME280;49297;43.210;27.914;2023-06-01T10:02:54;101222.03;;;25.00;44.04
63204;BME280;49297;43.210;27.914;2023-06-01T10:05:21;101232.81;;;25.06;43.25
63204;BME280;49297;43.210;27.914;2023-06-01T10:07:47;101227.56;;;25.12;42.94
63204;BME280;49297;43.210;27.914;2023-06-01T10:10:13;101222.06;;;25.18;42.92
63204;BME280;49297;43.210;27.914;2023-06-01T10:12:40;101213.91;;;25.25;42.78
63204;BME280;49297;43.210;27.914;2023-06-01T10:15:06;101214.47;;;25.34;42.77
63204;BME280;49297;43.210;27.914;2023-06-01T10:17:33;101213.13;;;25.43;42.95
63204;BME280;49297;43.210;27.914;2023-06-01T10:20:00;101218.25;;;25.51;42.61
63204;BME280;49297;43.210;27.914;2023-06-01T10:22:27;101210.03;;;25.58;42.32
63204;BME280;49297;43.210;27.914;2023-06-01T10:24:55;101205.84;;;25.62;41.94
63204;BME280;49297;43.210;27.914;2023-06-01T10:29:51;101206.50;;;25.76;40.24
63204;BME280;49297;43.210;27.914;2023-06-01T10:35:03;101202.84;;;27.03;38.70
63204;BME280;49297;43.210;27.914;2023-06-01T10:37:28;101196.84;;;27.77;37.18
63204;BME280;49297;43.210;27.914;2023-06-01T10:40:09;101197.28;;;28.55;36.67
63204;BME280;49297;43.210;27.914;2023-06-01T10:42:35;101195.97;;;28.75;35.34
63204;BME280;49297;43.210;27.914;2023-06-01T10:45:02;101190.03;;;28.61;34.32
63204;BME280;49297;43.210;27.914;2023-06-01T10:52:29;101183.44;;;28.57;33.11
63204;BME280;49297;43.210;27.914;2023-06-01T10:57:39;101172.22;;;28.24;34.22
63204;BME280;49297;43.210;27.914;2023-06-01T11:02:41;101171.59;;;28.51;34.13
63204;BME280;49297;43.210;27.914;2023-06-01T11:13:15;101169.56;;;31.69;31.39
63204;BME280;49297;43.210;27.914;2023-06-01T11:18:57;101157.53;;;31.76;31.96
63204;BME280;49297;43.210;27.914;2023-06-01T11:21:44;101154.38;;;32.40;30.85
63204;BME280;49297;43.210;27.914;2023-06-01T11:24:12;101156.53;;;33.00;30.26
63204;BME280;49297;43.210;27.914;2023-06-01T11:26:43;101144.94;;;33.39;28.83
63204;BME280;49297;43.210;27.914;2023-06-01T11:29:20;101152.75;;;33.71;28.47
63204;BME280;49297;43.210;27.914;2023-06-01T11:31:52;101146.75;;;34.09;26.84
63204;BME280;49297;43.210;27.914;2023-06-01T11:36:56;101137.53;;;34.34;23.98
63204;BME280;49297;43.210;27.914;2023-06-01T11:39:27;101138.50;;;33.59;25.13
63204;BME280;49297;43.210;27.914;2023-06-01T11:42:11;101130.81;;;32.70;26.43
63204;BME280;49297;43.210;27.914;2023-06-01T11:45:07;101135.13;;;31.99;27.72
63204;BME280;49297;43.210;27.914;2023-06-01T11:47:39;101120.69;;;32.19;28.46
63204;BME280;49297;43.210;27.914;2023-06-01T11:50:19;101122.06;;;32.68;28.38
63204;BME280;49297;43.210;27.914;2023-06-01T11:52:48;101124.97;;;33.18;28.39
63204;BME280;49297;43.210;27.914;2023-06-01T11:55:16;101125.53;;;32.99;29.57
63204;BME280;49297;43.210;27.914;2023-06-01T11:57:43;101113.84;;;32.32;31.50
63204;BME280;49297;43.210;27.914;2023-06-01T12:00:18;101123.03;;;31.69;33.47
63204;BME280;49297;43.210;27.914;2023-06-01T12:02:46;101116.22;;;31.14;33.64
63204;BME280;49297;43.210;27.914;2023-06-01T12:05:16;101117.31;;;30.70;34.81
63204;BME280;49297;43.210;27.914;2023-06-01T12:07:50;101114.94;;;30.14;33.88
63204;BME280;49297;43.210;27.914;2023-06-01T12:10:18;101116.41;;;29.51;35.11
63204;BME280;49297;43.210;27.914;2023-06-01T12:12:46;101115.22;;;29.02;35.26
63204;BME280;49297;43.210;27.914;2023-06-01T12:15:16;101110.31;;;29.21;34.70
63204;BME280;49297;43.210;27.914;2023-06-01T12:17:52;101094.69;;;30.10;34.09
63204;BME280;49297;43.210;27.914;2023-06-01T12:20:34;101103.78;;;30.53;34.28
63204;BME280;49297;43.210;27.914;2023-06-01T12:23:14;101096.31;;;31.24;32.50
63204;BME280;49297;43.210;27.914;2023-06-01T12:25:53;101083.88;;;31.48;32.53
63204;BME280;49297;43.210;27.914;2023-06-01T12:28:25;101097.38;;;31.18;33.25
63204;BME280;49297;43.210;27.914;2023-06-01T12:31:15;101085.34;;;31.19;33.99
63204;BME280;49297;43.210;27.914;2023-06-01T12:33:43;101092.66;;;31.66;32.57
63204;BME280;49297;43.210;27.914;2023-06-01T12:36:10;101089.72;;;32.03;32.01
63204;BME280;49297;43.210;27.914;2023-06-01T12:39:02;101089.13;;;32.01;32.11
63204;BME280;49297;43.210;27.914;2023-06-01T12:41:31;101086.63;;;31.54;31.89
63204;BME280;49297;43.210;27.914;2023-06-01T12:43:58;101083.53;;;30.87;32.60
63204;BME280;49297;43.210;27.914;2023-06-01T12:46:30;101087.75;;;30.30;33.54
63204;BME280;49297;43.210;27.914;2023-06-01T12:49:16;101085.50;;;29.67;34.89
63204;BME280;49297;43.210;27.914;2023-06-01T12:51:46;101088.19;;;29.18;34.93
63204;BME280;49297;43.210;27.914;2023-06-01T12:54:12;101080.53;;;28.76;35.43
63204;BME280;49297;43.210;27.914;2023-06-01T12:56:38;101078.78;;;28.36;35.95
63204;BME280;49297;43.210;27.914;2023-06-01T12:59:04;101079.00;;;28.00;36.63
63204;BME280;49297;43.210;27.914;2023-06-01T13:01:32;101079.34;;;27.75;36.88
63204;BME280;49297;43.210;27.914;2023-06-01T13:03:57;101076.00;;;27.56;38.05
63204;BME280;49297;43.210;27.914;2023-06-01T13:06:23;101074.53;;;27.37;38.20
63204;BME280;49297;43.210;27.914;2023-06-01T13:08:50;101074.28;;;27.14;38.41
63204;BME280;49297;43.210;27.914;2023-06-01T13:11:17;101067.13;;;26.96;38.40
63204;BME280;49297;43.210;27.914;2023-06-01T13:13:44;101062.53;;;26.85;38.66
63204;BME280;49297;43.210;27.914;2023-06-01T13:16:11;101062.31;;;26.75;39.50
63204;BME280;49297;43.210;27.914;2023-06-01T13:18:36;101054.78;;;26.65;40.36
63204;BME280;49297;43.210;27.914;2023-06-01T13:21:02;101053.69;;;26.54;40.96
63204;BME280;49297;43.210;27.914;2023-06-01T13:23:28;101042.19;;;26.52;40.97
63204;BME280;49297;43.210;27.914;2023-06-01T13:25:54;101039.50;;;26.52;40.23
63204;BME280;49297;43.210;27.914;2023-06-01T13:28:20;101048.72;;;26.51;40.03
63204;BME280;49297;43.210;27.914;2023-06-01T13:30:46;101050.47;;;26.57;39.73
63204;BME280;49297;43.210;27.914;2023-06-01T13:33:14;101035.84;;;26.58;38.60
63204;BME280;49297;43.210;27.914;2023-06-01T13:35:39;101031.69;;;26.56;37.59